Time;durP1;ratioP1;P1;durP2;ratioP2;P2;SDS_P1;SDS_P2;PMS_P1;PMS_P2;Temp;Humidity;BMP_temperature;BMP_pressure;BME280_temperature;BME280_humidity;BME280_pressure;Samples;Min_cycle;Max_cycle;Signal;HPM_P1;HPM_P2
2023/09/18 00:01:12;;;;;;;;;;;;;;;19.41;79.41;100218.78;10335616;28;96912;-85
2023/09/18 00:06:19;;;;;;;1.65;0.60;;;;;;;19.26;78.58;100221.63;10334995;28;97089;-85
2023/09/18 00:11:24;;;;;;;2.35;0.60;;;;;;;19.28;78.61;100234.84;10334377;28;97291;-85
2023/09/18 00:16:28;;;;;;;1.23;0.47;;;;;;;19.34;78.36;100234.38;10334401;28;96785;-85
2023/09/18 00:21:42;;;;;;;0.93;0.50;;;;;;;19.34;78.62;100231.69;10334476;28;96824;-86
2023/09/18 00:26:46;;;;;;;2.75;0.50;;;;;;;19.22;79.46;100241.50;10333697;28;96570;-85
2023/09/18 00:31:52;;;;;;;1.63;0.50;;;;;;;19.19;79.51;100236.41;10335294;28;97005;-85
2023/09/18 00:36:58;;;;;;;2.00;0.60;;;;;;;19.11;79.35;100238.75;10332766;28;97178;-85
2023/09/18 00:42:03;;;;;;;1.42;0.80;;;;;;;19.00;79.63;100243.22;10333243;28;97320;-85
2023/09/18 00:47:08;;;;;;;1.80;0.88;;;;;;;19.09;79.16;100239.84;10332431;28;96602;-85
2023/09/18 00:52:17;;;;;;;1.65;0.82;;;;;;;19.06;78.94;100240.09;10333423;28;96661;-85
2023/09/18 00:57:22;;;;;;;3.13;0.55;;;;;;;19.00;78.96;100244.06;10332758;28;96700;-85
2023/09/18 01:02:27;;;;;;;2.00;0.88;;;;;;;19.00;79.21;100245.88;10332651;28;96705;-85
2023/09/18 01:07:34;;;;;;;1.42;0.75;;;;;;;19.01;79.31;100260.91;10332616;28;96767;-85
2023/09/18 01:12:45;;;;;;;1.83;0.52;;;;;;;18.81;79.66;100265.06;10333288;28;98126;-85
2023/09/18 01:17:51;;;;;;;2.42;0.60;;;;;;;18.73;79.39;100270.06;10332366;28;96615;-85
2023/09/18 01:22:57;;;;;;;5.32;0.40;;;;;;;18.71;78.95;100279.16;10331940;28;96774;-86
2023/09/18 01:28:04;;;;;;;1.70;0.65;;;;;;;18.64;79.60;100283.22;10340235;28;97080;-87
2023/09/18 01:33:11;;;;;;;2.13;0.57;;;;;;;18.71;79.15;100285.34;10373253;28;96578;-87
2023/09/18 01:38:20;;;;;;;1.73;0.63;;;;;;;18.79;78.77;100288.31;10346858;28;97212;-86
2023/09/18 01:43:24;;;;;;;1.75;0.40;;;;;;;18.86;78.68;100289.56;10331637;28;96706;-86
2023/09/18 01:48:28;;;;;;;1.48;0.30;;;;;;;18.92;78.79;100278.44;10330803;28;96711;-87
2023/09/18 01:53:35;;;;;;;0.95;0.43;;;;;;;18.95;78.57;100270.22;10331644;28;97251;-87
2023/09/18 01:58:39;;;;;;;3.70;0.77;;;;;;;18.91;78.84;100273.22;10329879;28;96937;-87
2023/09/18 02:03:45;;;;;;;1.25;0.40;;;;;;;18.85;78.99;100271.84;10331529;28;96992;-87
2023/09/18 02:09:14;;;;;;;0.80;0.30;;;;;;;18.77;79.24;100268.91;10330778;28;96555;-87
2023/09/18 02:14:18;;;;;;;2.92;0.60;;;;;;;18.89;78.96;100260.00;10289678;28;96563;-87
2023/09/18 02:19:24;;;;;;;2.08;0.63;;;;;;;18.86;78.77;100254.03;10288386;28;97396;-86
2023/09/18 02:24:30;;;;;;;2.17;0.43;;;;;;;18.91;78.50;100246.53;10289142;28;96680;-87
2023/09/18 02:29:37;;;;;;;1.70;0.40;;;;;;;18.90;78.55;100243.06;10316799;28;96742;-87
2023/09/18 02:34:41;;;;;;;1.95;0.50;;;;;;;18.82;78.54;100261.41;10330495;28;96614;-86
2023/09/18 02:39:49;;;;;;;0.88;0.35;;;;;;;18.89;78.35;100256.47;10330044;28;96725;-86
2023/09/18 02:44:54;;;;;;;1.90;0.40;;;;;;;18.88;78.28;100268.97;10329346;28;96787;-86
2023/09/18 02:49:58;;;;;;;0.95;0.28;;;;;;;18.73;78.63;100266.56;10329671;28;97267;-86
2023/09/18 02:55:05;;;;;;;0.93;0.45;;;;;;;18.75;79.00;100272.66;10330679;28;97839;-86
2023/09/18 03:00:13;;;;;;;1.65;0.43;;;;;;;18.78;78.69;100272.41;10329107;28;96672;-86
2023/09/18 03:05:19;;;;;;;1.60;0.47;;;;;;;18.77;78.98;100270.69;10288672;28;96599;-86
2023/09/18 03:10:25;;;;;;;;;;;;;;;18.86;79.09;100278.03;10288496;28;97350;-86
2023/09/18 03:15:30;;;;;;;1.77;0.60;;;;;;;18.87;78.20;100271.75;10295942;28;96640;-86
2023/09/18 03:20:40;;;;;;;1.48;0.40;;;;;;;18.74;78.64;100271.78;10323922;28;97365;-86
2023/09/18 03:25:46;;;;;;;0.52;0.25;;;;;;;18.91;78.28;100281.22;10336382;28;96869;-86
2023/09/18 03:30:54;;;;;;;2.08;0.45;;;;;;;18.80;78.71;100281.16;10374787;28;96824;-86
2023/09/18 03:36:01;;;;;;;1.10;0.50;;;;;;;18.74;78.31;100281.59;10361357;28;96902;-86
2023/09/18 03:41:07;;;;;;;0.55;0.35;;;;;;;18.75;78.59;100283.31;10335394;28;97026;-86
2023/09/18 03:46:16;;;;;;;1.38;0.65;;;;;;;18.74;78.77;100286.94;10336092;28;97249;-86
2023/09/18 03:51:21;;;;;;;0.57;0.30;;;;;;;18.55;79.31;100284.75;10334814;28;96645;-86
2023/09/18 03:56:28;;;;;;;2.42;0.50;;;;;;;18.57;79.55;100276.63;10334933;28;96782;-86
2023/09/18 04:01:36;;;;;;;1.85;0.60;;;;;;;18.62;79.13;100282.47;10334060;28;97048;-86
2023/09/18 04:06:44;;;;;;;0.73;0.38;;;;;;;18.63;78.96;100287.69;10334804;28;97143;-86
2023/09/18 04:11:52;;;;;;;2.30;0.50;;;;;;;18.60;78.96;100292.41;10334221;28;96565;-86
2023/09/18 04:16:59;;;;;;;0.93;0.50;;;;;;;18.76;78.71;100306.34;10334109;28;97354;-86
2023/09/18 04:22:04;;;;;;;0.93;0.50;;;;;;;18.82;78.48;100313.88;10333259;28;96695;-86
2023/09/18 04:27:11;;;;;;;2.10;0.70;;;;;;;18.73;78.49;100325.22;10333268;28;96947;-86
2023/09/18 04:32:15;;;;;;;0.60;0.40;;;;;;;18.72;78.68;100339.50;10333503;28;96696;-85
2023/09/18 04:37:20;;;;;;;1.73;0.75;;;;;;;18.64;78.81;100341.88;10334196;28;97089;-85
2023/09/18 04:42:29;;;;;;;2.45;0.80;;;;;;;18.63;78.84;100342.81;10333429;28;97303;-86
2023/09/18 04:47:34;;;;;;;2.08;0.77;;;;;;;18.63;78.98;100342.81;10332974;28;96728;-86
2023/09/18 04:52:40;;;;;;;2.10;0.80;;;;;;;18.60;79.16;100351.03;10332753;28;97256;-86
2023/09/18 04:57:47;;;;;;;2.97;1.08;;;;;;;18.59;79.23;100349.34;10332788;28;97333;-85
2023/09/18 05:02:51;;;;;;;2.60;1.10;;;;;;;18.56;79.07;100354.91;10333074;28;97027;-85
2023/09/18 05:07:55;;;;;;;3.15;1.00;;;;;;;18.57;79.00;100354.78;10332672;28;98016;-86
2023/09/18 05:13:03;;;;;;;3.08;0.80;;;;;;;18.56;79.10;100366.38;10332721;28;97839;-85
2023/09/18 05:18:09;;;;;;;3.45;0.90;;;;;;;18.62;78.94;100357.13;10332939;28;96676;-85
2023/09/18 05:23:15;;;;;;;1.85;0.60;;;;;;;18.58;78.90;100363.63;10331930;28;96656;-86
2023/09/18 05:28:23;;;;;;;1.30;0.70;;;;;;;18.71;78.62;100368.00;10331811;28;96830;-85
2023/09/18 05:33:30;;;;;;;3.45;1.00;;;;;;;18.69;78.77;100383.25;10331236;28;96850;-86
2023/09/18 05:38:34;;;;;;;2.20;0.90;;;;;;;18.63;78.97;100381.00;10331825;28;96729;-85
2023/09/18 05:43:40;;;;;;;2.00;0.65;;;;;;;18.60;79.14;100381.22;10330950;28;97007;-85
2023/09/18 05:48:46;;;;;;;2.08;0.90;;;;;;;18.66;78.59;100393.28;10331586;28;97346;-85
2023/09/18 05:53:50;;;;;;;3.30;0.80;;;;;;;18.59;78.96;100390.16;10331310;28;96584;-85
2023/09/18 05:58:57;;;;;;;3.65;0.95;;;;;;;18.64;78.68;100387.19;10330798;28;96736;-85
2023/09/18 06:04:03;;;;;;;3.42;1.13;;;;;;;18.69;78.51;100382.38;10331225;28;96910;-85
2023/09/18 06:09:07;;;;;;;1.33;0.90;;;;;;;18.68;78.42;100380.69;10330464;28;96740;-86
2023/09/18 06:14:13;;;;;;;3.10;1.35;;;;;;;18.74;78.10;100373.09;10331284;28;97140;-85
2023/09/18 06:19:19;;;;;;;4.85;1.33;;;;;;;18.45;78.77;100384.06;10331515;28;97357;-85
2023/09/18 06:24:24;;;;;;;2.00;0.95;;;;;;;18.30;79.31;100388.63;10330008;28;97046;-85
2023/09/18 06:29:30;;;;;;;1.40;0.90;;;;;;;18.49;79.06;100406.94;10329885;28;96793;-85
2023/09/18 06:34:35;;;;;;;7.03;1.60;;;;;;;18.55;78.96;100423.34;10328691;28;96741;-85
2023/09/18 06:39:39;;;;;;;2.03;1.10;;;;;;;18.57;78.61;100429.41;10329783;28;96763;-85
2023/09/18 06:44:45;;;;;;;1.83;1.00;;;;;;;18.63;78.50;100444.09;10329477;28;97240;-85
2023/09/18 06:49:50;;;;;;;2.22;1.05;;;;;;;18.67;78.39;100454.47;10337391;28;97057;-85
2023/09/18 06:54:54;;;;;;;2.13;1.20;;;;;;;18.68;78.17;100468.66;10337331;28;97039;-85
2023/09/18 07:00:03;;;;;;;4.68;1.27;;;;;;;18.63;78.54;100481.41;10336638;28;97287;-85
2023/09/18 07:05:08;;;;;;;2.22;1.15;;;;;;;18.62;78.36;100488.59;10336330;28;96732;-85
2023/09/18 07:10:12;;;;;;;1.85;0.95;;;;;;;18.78;78.08;100512.38;10337770;28;96749;-85
2023/09/18 07:15:19;;;;;;;1.42;0.68;;;;;;;18.65;78.12;100524.81;10336388;28;96769;-85
2023/09/18 07:20:26;;;;;;;1.58;0.82;;;;;;;18.66;78.05;100524.72;10336262;28;97354;-85
2023/09/18 07:25:30;;;;;;;0.70;0.50;;;;;;;18.83;77.48;100529.78;10334852;28;97158;-85
2023/09/18 07:30:37;;;;;;;1.67;0.80;;;;;;;19.05;77.18;100547.78;10335362;28;97311;-85
2023/09/18 07:35:41;;;;;;;3.28;1.40;;;;;;;19.15;76.84;100554.19;10335522;28;96672;-85
2023/09/18 07:40:45;;;;;;;2.22;1.10;;;;;;;19.27;76.65;100558.66;10335593;28;97069;-85
2023/09/18 07:45:52;;;;;;;2.28;1.20;;;;;;;19.12;76.99;100559.75;10334817;28;97278;-85
2023/09/18 07:50:57;;;;;;;1.60;0.80;;;;;;;19.26;76.41;100559.63;10335022;28;97257;-85
2023/09/18 07:56:03;;;;;;;2.72;1.35;;;;;;;19.23;76.68;100574.03;10335533;28;96893;-85
2023/09/18 08:01:12;;;;;;;1.85;1.38;;;;;;;19.20;76.74;100576.06;10335619;28;97152;-85
2023/09/18 08:06:18;;;;;;;2.10;1.25;;;;;;;19.27;76.18;100588.00;10334447;28;97406;-85
2023/09/18 08:11:22;;;;;;;5.13;1.38;;;;;;;19.16;76.28;100601.25;10335218;28;96722;-85
2023/09/18 08:16:29;;;;;;;1.63;1.08;;;;;;;19.42;75.94;100612.81;10333585;28;96759;-85
2023/09/18 08:21:34;;;;;;;1.92;0.90;;;;;;;19.59;75.37;100621.34;10335056;28;97117;-85
2023/09/18 08:26:39;;;;;;;2.20;1.00;;;;;;;19.57;75.38;100617.94;10333509;28;97154;-85
2023/09/18 08:31:46;;;;;;;1.77;0.98;;;;;;;20.54;73.84;100630.38;10333795;28;96903;-85
2023/09/18 08:36:51;;;;;;;2.63;1.02;;;;;;;23.03;69.28;100639.78;10332734;28;96639;-85
2023/09/18 08:42:01;;;;;;;1.73;0.90;;;;;;;24.72;65.88;100633.59;10333425;28;96793;-85
2023/09/18 08:47:10;;;;;;;2.65;0.90;;;;;;;25.81;63.73;100642.94;10333423;28;96695;-85
2023/09/18 08:52:16;;;;;;;1.80;0.57;;;;;;;26.82;62.16;100633.66;10333704;28;96789;-85
2023/09/18 08:57:24;;;;;;;1.55;0.60;;;;;;;27.80;59.48;100623.47;10332634;28;96896;-85
2023/09/18 09:02:34;;;;;;;1.13;0.50;;;;;;;29.34;54.92;100633.63;10333069;28;97240;-85
2023/09/18 09:07:38;;;;;;;1.17;0.50;;;;;;;30.27;52.86;100639.16;10331417;28;96727;-85
2023/09/18 09:13:00;;;;;;;2.65;0.65;;;;;;;30.33;51.25;100636.75;10332288;28;96965;-84
2023/09/18 09:18:11;;;;;;;0.53;0.40;;;;;;;31.33;49.27;100646.44;10332353;28;97420;-84
2023/09/18 09:23:15;;;;;;;1.67;0.65;;;;;;;31.17;49.01;100646.56;10332281;28;96758;-84
2023/09/18 09:28:31;;;;;;;2.33;0.70;;;;;;;32.14;45.56;100651.00;10331791;28;97080;-84
2023/09/18 09:33:37;;;;;;;1.17;0.55;;;;;;;31.33;46.66;100651.88;10331763;28;96778;-84
2023/09/18 09:38:44;;;;;;;4.35;0.93;;;;;;;31.87;44.69;100647.09;10331780;28;96697;-85
2023/09/18 09:43:49;;;;;;;1.77;0.70;;;;;;;32.63;42.99;100649.34;10332404;28;96766;-85
2023/09/18 09:49:07;;;;;;;1.00;0.73;;;;;;;32.70;40.74;100646.69;10330987;28;96707;-85
2023/09/18 09:54:13;;;;;;;3.35;0.75;;;;;;;32.80;41.14;100650.78;10331567;28;97261;-85
2023/09/18 09:59:20;;;;;;;2.08;0.65;;;;;;;33.39;39.81;100646.75;10373629;22;96996;-85
2023/09/18 10:04:33;;;;;;;2.80;0.77;;;;;;;34.06;38.44;100646.19;10380575;28;97505;-85
2023/09/18 10:09:39;;;;;;;1.00;0.55;;;;;;;35.21;37.84;100650.56;10410611;28;97274;-85
2023/09/18 10:14:49;;;;;;;2.05;1.00;;;;;;;35.28;36.36;100652.28;10420645;27;97808;-85
2023/09/18 10:20:10;;;;;;;3.23;1.00;;;;;;;35.53;35.49;100664.28;10412472;28;97706;-85
2023/09/18 10:25:18;;;;;;;2.15;0.85;;;;;;;34.59;36.96;100656.34;10407272;28;97494;-85
2023/09/18 10:30:22;;;;;;;2.00;0.65;;;;;;;35.57;34.83;100664.69;10413335;28;97829;-85
2023/09/18 10:35:27;;;;;;;2.40;1.00;;;;;;;35.78;34.56;100663.63;10413490;28;96622;-85
2023/09/18 10:40:33;;;;;;;2.38;0.88;;;;;;;36.04;34.16;100669.91;10400579;28;96788;-85
2023/09/18 10:45:37;;;;;;;2.03;1.10;;;;;;;36.17;33.65;100677.28;10404777;28;97194;-85
2023/09/18 10:50:45;;;;;;;2.13;1.00;;;;;;;35.92;32.86;100676.28;10411043;28;96692;-85
2023/09/18 10:55:51;;;;;;;2.42;0.80;;;;;;;36.05;32.11;100674.34;10412795;28;96708;-85
2023/09/18 11:00:57;;;;;;;1.42;0.75;;;;;;;36.01;31.75;100678.59;10377724;28;96997;-84
2023/09/18 11:06:06;;;;;;;3.65;1.13;;;;;;;35.78;31.99;100671.84;10370633;28;97322;-84
2023/09/18 11:11:14;;;;;;;2.75;1.10;;;;;;;35.59;32.20;100660.72;10370550;28;96839;-84
2023/09/18 11:16:20;;;;;;;4.32;1.20;;;;;;;35.87;31.51;100659.59;10370405;28;96768;-84
2023/09/18 11:21:28;;;;;;;2.75;1.00;;;;;;;36.07;31.03;100655.78;10370559;28;97105;-84
2023/09/18 11:26:32;;;;;;;3.25;1.30;;;;;;;35.38;29.63;100649.94;10371205;28;96921;-84
2023/09/18 11:31:47;;;;;;;3.25;1.50;;;;;;;35.76;29.59;100644.66;10359200;28;96713;-84
2023/09/18 11:36:52;;;;;;;2.33;1.10;;;;;;;36.88;29.12;100651.44;10369449;28;96655;-84
2023/09/18 11:42:08;;;;;;;3.00;1.10;;;;;;;36.98;25.80;100651.81;10375903;28;96646;-84
2023/09/18 11:47:19;;;;;;;2.47;1.00;;;;;;;37.00;27.89;100655.16;10376338;28;97018;-84
2023/09/18 11:52:25;;;;;;;1.52;0.70;;;;;;;35.91;26.04;100639.78;10377027;28;96675;-84
2023/09/18 11:57:29;;;;;;;2.15;1.00;;;;;;;36.45;27.50;100634.78;10376330;28;96715;-84
2023/09/18 12:02:35;;;;;;;3.45;0.77;;;;;;;37.10;26.36;100640.94;10417367;28;96591;-83
2023/09/18 12:07:43;;;;;;;2.10;1.10;;;;;;;36.16;26.88;100632.56;10408976;28;97402;-83
2023/09/18 12:12:46;;;;;;;1.92;0.80;;;;;;;35.42;27.73;100628.47;10417718;28;96773;-83
2023/09/18 12:17:54;;;;;;;2.90;0.75;;;;;;;35.12;27.55;100635.41;10418048;28;97380;-83
2023/09/18 12:22:59;;;;;;;4.53;1.00;;;;;;;35.60;27.22;100615.81;10417356;28;96618;-83
2023/09/18 12:28:03;;;;;;;2.63;1.10;;;;;;;34.69;28.49;100615.75;10416664;28;96754;-83
2023/09/18 12:33:07;;;;;;;1.63;0.85;;;;;;;35.70;28.05;100612.66;10416639;28;96972;-83
2023/09/18 12:38:19;;;;;;;3.25;1.13;;;;;;;35.20;25.83;100608.69;10415970;28;96657;-83
2023/09/18 12:43:24;;;;;;;3.67;1.20;;;;;;;35.04;27.91;100611.84;10370956;28;96663;-82
2023/09/18 12:48:27;;;;;;;1.73;1.05;;;;;;;35.53;27.30;100605.94;10374655;28;96592;-82
2023/09/18 12:53:33;;;;;;;2.30;1.15;;;;;;;35.21;27.21;100617.75;10374524;28;96712;-82
2023/09/18 12:58:37;;;;;;;2.78;1.38;;;;;;;34.24;28.05;100616.44;10403145;28;97071;-82
2023/09/18 13:04:05;;;;;;;2.53;1.20;;;;;;;32.49;30.40;100612.09;10410564;28;96789;-82
2023/09/18 13:09:20;;;;;;;1.77;0.88;;;;;;;32.04;30.24;100610.47;10374725;28;96888;-82
2023/09/18 13:14:24;;;;;;;2.22;0.90;;;;;;;33.24;29.45;100605.06;10374315;28;97314;-82
2023/09/18 13:19:27;;;;;;;4.70;0.90;;;;;;;33.05;29.54;100600.28;10373932;28;97384;-82
2023/09/18 13:24:32;;;;;;;3.03;1.30;;;;;;;33.24;29.82;100601.50;10372279;28;97935;-82
2023/09/18 13:29:35;;;;;;;2.80;0.85;;;;;;;33.54;29.07;100604.91;10372862;28;96919;-82
2023/09/18 13:34:39;;;;;;;2.28;1.02;;;;;;;33.59;29.35;100599.69;10373313;28;97407;-81
2023/09/18 13:39:45;;;;;;;2.53;0.95;;;;;;;33.16;29.00;100597.03;10373241;28;96714;-82
2023/09/18 13:44:49;;;;;;;2.83;1.05;;;;;;;31.48;32.50;100589.31;10373182;28;96555;-82
2023/09/18 13:49:53;;;;;;;2.10;1.00;;;;;;;31.34;32.30;100593.72;10392739;28;96843;-81
2023/09/18 13:54:57;;;;;;;;;;;;;;;29.88;34.62;100578.56;10415123;27;97563;-81
2023/09/18 14:00:01;;;;;;;3.15;0.90;;;;;;;30.60;33.64;100577.31;10414748;28;96891;-81
2023/09/18 14:05:05;;;;;;;3.45;1.10;;;;;;;30.36;33.15;100582.94;10408697;28;96800;-81
2023/09/18 14:10:12;;;;;;;2.28;0.80;;;;;;;30.21;32.99;100569.25;10413144;28;96619;-81
2023/09/18 14:15:15;;;;;;;3.15;0.98;;;;;;;30.09;33.36;100569.84;10412665;28;97292;-81
2023/09/18 14:20:20;;;;;;;1.65;0.70;;;;;;;29.16;34.47;100573.31;10412547;28;96644;-81
2023/09/18 14:25:27;;;;;;;2.45;0.90;;;;;;;28.50;35.79;100568.03;10372081;28;97606;-81
2023/09/18 14:30:31;;;;;;;2.30;0.90;;;;;;;28.08;36.80;100562.69;10371551;28;98142;-81
2023/09/18 14:35:36;;;;;;;2.75;0.80;;;;;;;27.98;37.20;100561.13;10371774;28;97229;-81
2023/09/18 14:40:45;;;;;;;3.45;1.35;;;;;;;27.34;39.30;100566.22;10371563;28;96703;-81
2023/09/18 14:45:52;;;;;;;2.22;1.20;;;;;;;26.99;40.40;100561.75;10371248;28;96553;-81
2023/09/18 14:50:56;;;;;;;1.85;1.00;;;;;;;27.07;40.24;100564.53;10371565;28;96574;-81
2023/09/18 14:56:04;;;;;;;2.28;1.10;;;;;;;26.90;41.31;100559.97;10371216;28;96792;-81
2023/09/18 15:01:07;;;;;;;3.58;1.10;;;;;;;27.09;42.30;100564.38;10398836;28;96996;-81
2023/09/18 15:06:10;;;;;;;3.70;1.20;;;;;;;26.39;43.82;100567.94;10410850;27;96732;-81
2023/09/18 15:11:17;;;;;;;3.38;1.27;;;;;;;26.40;44.47;100564.25;10418607;28;96846;-81
2023/09/18 15:16:20;;;;;;;4.05;1.20;;;;;;;26.86;43.24;100572.94;10415803;28;97486;-81
2023/09/18 15:21:24;;;;;;;4.82;1.48;;;;;;;26.74;43.45;100584.16;10390533;28;97399;-81
2023/09/18 15:26:28;;;;;;;2.90;1.23;;;;;;;27.04;43.60;100570.25;10377443;28;96718;-81
2023/09/18 15:31:31;;;;;;;3.78;1.20;;;;;;;26.74;44.51;100582.31;10405575;28;97309;-81
2023/09/18 15:36:35;;;;;;;5.47;2.00;;;;;;;26.15;45.21;100589.25;10419242;28;97046;-81
2023/09/18 15:41:39;;;;;;;2.93;1.23;;;;;;;26.15;45.88;100589.25;10417245;28;96810;-81
2023/09/18 15:46:43;;;;;;;2.30;1.40;;;;;;;26.03;46.52;100591.31;10418034;28;97016;-80
2023/09/18 15:51:46;;;;;;;4.13;1.40;;;;;;;25.80;47.26;100585.47;10417011;28;96785;-81
2023/09/18 15:56:50;;;;;;;5.60;1.40;;;;;;;25.65;47.27;100596.88;10417122;27;96698;-81
2023/09/18 16:01:54;;;;;;;5.50;1.65;;;;;;;25.47;47.70;100593.22;10453882;27;96703;-80
2023/09/18 16:06:57;;;;;;;3.07;1.17;;;;;;;25.47;48.19;100598.63;10418202;27;97174;-80
2023/09/18 16:12:03;;;;;;;4.60;1.30;;;;;;;25.25;48.53;100601.66;10417969;28;97304;-81
2023/09/18 16:17:08;;;;;;;4.35;1.50;;;;;;;25.37;48.29;100603.19;10417245;27;96762;-80
2023/09/18 16:22:15;;;;;;;3.45;1.30;;;;;;;25.30;48.55;100605.63;10416971;28;96717;-81
2023/09/18 16:27:20;;;;;;;4.22;1.60;;;;;;;25.13;48.66;100609.06;10416787;28;97184;-81
2023/09/18 16:32:24;;;;;;;4.32;1.38;;;;;;;24.99;48.82;100609.50;10417631;28;97323;-81
2023/09/18 16:37:28;;;;;;;6.00;1.45;;;;;;;25.04;48.67;100617.16;10415941;28;96631;-81
2023/09/18 16:42:32;;;;;;;3.90;1.23;;;;;;;25.16;48.76;100616.84;10416776;28;96723;-80
2023/09/18 16:47:36;;;;;;;2.70;1.13;;;;;;;25.12;48.50;100618.13;10412386;28;97403;-80
2023/09/18 16:52:43;;;;;;;4.70;1.60;;;;;;;25.19;48.41;100618.44;10376931;28;97173;-81
2023/09/18 16:57:48;;;;;;;5.07;1.42;;;;;;;24.84;49.29;100622.53;10412976;27;96616;-81
2023/09/18 17:02:51;;;;;;;2.95;1.27;;;;;;;24.80;49.21;100639.97;10415906;28;96757;-80
2023/09/18 17:07:55;;;;;;;4.38;1.40;;;;;;;24.95;49.11;100640.38;10415749;28;97689;-80
2023/09/18 17:13:00;;;;;;;4.90;1.77;;;;;;;24.68;49.60;100641.09;10415647;28;97035;-80
2023/09/18 17:18:03;;;;;;;3.95;1.90;;;;;;;24.60;49.91;100654.38;10415467;28;96831;-80
2023/09/18 17:23:07;;;;;;;4.32;1.73;;;;;;;24.59;50.16;100652.69;10416609;28;96750;-81
2023/09/18 17:28:13;;;;;;;3.37;1.70;;;;;;;24.26;51.41;100644.09;10415032;28;97026;-81
2023/09/18 17:33:18;;;;;;;8.10;1.98;;;;;;;24.18;51.50;100652.00;10414923;27;97405;-80
2023/09/18 17:38:23;;;;;;;5.13;1.88;;;;;;;24.20;51.40;100652.75;10414381;28;96945;-80
2023/09/18 17:43:31;;;;;;;4.55;1.67;;;;;;;24.17;51.70;100648.47;10414701;28;96682;-80
2023/09/18 17:48:37;;;;;;;4.85;1.52;;;;;;;24.07;51.87;100655.66;10414100;28;96697;-80
2023/09/18 17:53:40;;;;;;;3.17;1.48;;;;;;;24.08;51.97;100653.84;10414293;28;97367;-81
2023/09/18 17:58:46;;;;;;;4.22;1.48;;;;;;;24.11;52.22;100650.88;10413702;28;97597;-80
2023/09/18 18:03:50;;;;;;;2.58;1.15;;;;;;;24.07;52.59;100647.59;10414109;28;97384;-80
2023/09/18 18:08:54;;;;;;;3.95;1.23;;;;;;;24.04;53.01;100653.25;10414084;28;96824;-81
2023/09/18 18:13:59;;;;;;;4.10;1.90;;;;;;;23.98;53.33;100647.56;10414654;28;97231;-81
2023/09/18 18:19:04;;;;;;;2.47;1.20;;;;;;;23.91;53.46;100654.47;10413623;28;96807;-80
2023/09/18 18:24:08;;;;;;;4.63;1.85;;;;;;;23.87;53.85;100661.09;10413545;28;96732;-80
2023/09/18 18:29:13;;;;;;;5.20;1.83;;;;;;;23.58;54.52;100653.75;10412136;28;98418;-80
2023/09/18 18:34:17;;;;;;;4.80;2.20;;;;;;;23.52;55.33;100670.38;10412818;28;96690;-80
2023/09/18 18:39:20;;;;;;;;;;;;;;;23.49;56.35;100672.47;10413110;28;97196;-81
2023/09/18 18:44:25;;;;;;;6.80;2.60;;;;;;;23.35;55.15;100688.94;10418615;27;96705;-80
2023/09/18 18:49:28;;;;;;;6.10;2.50;;;;;;;23.26;55.21;100695.94;10420378;28;96608;-80
2023/09/18 18:54:32;;;;;;;8.43;2.38;;;;;;;23.02;55.77;100700.69;10419950;28;96556;-80
2023/09/18 18:59:39;;;;;;;4.65;2.60;;;;;;;22.96;56.01;100692.28;10419543;28;96728;-80
2023/09/18 19:04:43;;;;;;;2.95;1.83;;;;;;;22.98;55.66;100701.06;10421024;28;96747;-80
2023/09/18 19:09:46;;;;;;;4.17;1.70;;;;;;;22.87;56.52;100706.50;10418535;28;96732;-80
2023/09/18 19:14:54;;;;;;;3.70;1.52;;;;;;;22.95;56.78;100712.06;10419804;28;96695;-80
2023/09/18 19:19:57;;;;;;;3.28;1.55;;;;;;;22.94;56.99;100721.13;10418565;28;96800;-80
2023/09/18 19:25:00;;;;;;;4.53;1.55;;;;;;;22.78;57.87;100728.72;10418797;28;97327;-80
2023/09/18 19:30:07;;;;;;;3.85;1.73;;;;;;;22.63;58.90;100731.66;10409566;28;97652;-80
2023/09/18 19:35:11;;;;;;;5.68;1.50;;;;;;;22.64;59.24;100727.13;10418688;28;96744;-80
2023/09/18 19:40:14;;;;;;;4.82;1.63;;;;;;;22.57;59.58;100729.44;10417807;28;96958;-80
2023/09/18 19:45:20;;;;;;;4.03;1.37;;;;;;;22.29;60.67;100737.19;10417696;28;96642;-80
2023/09/18 19:50:28;;;;;;;4.60;1.98;;;;;;;22.41;60.18;100746.91;10379488;28;97651;-80
2023/09/18 19:55:32;;;;;;;5.10;1.55;;;;;;;22.15;60.82;100759.75;10376919;28;96562;-80
2023/09/18 20:00:36;;;;;;;4.47;1.50;;;;;;;22.15;60.83;100761.56;10412221;27;97296;-80
2023/09/18 20:05:39;;;;;;;3.95;1.58;;;;;;;22.12;61.18;100764.50;10418045;28;97173;-80
2023/09/18 20:10:43;;;;;;;4.13;1.70;;;;;;;22.04;61.73;100774.97;10417024;28;96695;-80
2023/09/18 20:15:48;;;;;;;2.88;1.67;;;;;;;22.07;61.81;100780.91;10417746;28;96796;-80
2023/09/18 20:20:55;;;;;;;3.50;1.88;;;;;;;22.01;62.00;100783.22;10417296;28;96683;-80
2023/09/18 20:26:00;;;;;;;3.38;1.88;;;;;;;21.90;62.37;100797.44;10417264;28;97086;-80
2023/09/18 20:31:05;;;;;;;3.53;1.52;;;;;;;21.74;62.92;100794.25;10416786;28;96735;-80
2023/09/18 20:36:11;;;;;;;3.60;1.90;;;;;;;21.58;63.35;100790.16;10416871;28;96927;-80
2023/09/18 20:41:15;;;;;;;5.10;1.83;;;;;;;21.22;64.59;100800.03;10416853;28;96707;-80
2023/09/18 20:46:19;;;;;;;4.13;1.43;;;;;;;21.26;64.53;100800.63;10418034;27;97560;-80
2023/09/18 20:51:23;;;;;;;5.32;2.13;;;;;;;21.44;63.76;100801.94;10419062;27;96738;-80
2023/09/18 20:56:26;;;;;;;6.43;2.40;;;;;;;21.30;63.97;100808.34;10416432;28;97616;-80
2023/09/18 21:01:31;;;;;;;5.30;2.55;;;;;;;21.16;64.43;100815.69;10414433;28;96889;-80
2023/09/18 21:06:35;;;;;;;4.40;2.10;;;;;;;21.02;64.71;100811.31;10415077;27;96691;-80
2023/09/18 21:11:41;;;;;;;5.70;2.10;;;;;;;21.00;64.93;100820.44;10415871;28;97285;-80
2023/09/18 21:16:48;;;;;;;3.53;2.05;;;;;;;20.73;65.28;100820.63;10415709;28;96714;-80
2023/09/18 21:21:53;;;;;;;4.43;1.70;;;;;;;20.74;65.46;100816.13;10415059;28;96850;-80
2023/09/18 21:26:58;;;;;;;2.80;1.70;;;;;;;20.35;66.66;100812.69;10415153;28;96849;-80
2023/09/18 21:32:05;;;;;;;;;;;;;;;20.46;67.65;100824.44;10415808;28;97243;-80
2023/09/18 21:37:09;;;;;;;4.65;1.65;;;;;;;20.26;66.52;100821.31;10416106;28;97312;-80
2023/09/18 21:42:12;;;;;;;2.47;1.50;;;;;;;20.11;66.77;100822.41;10415152;28;97249;-80
2023/09/18 21:47:17;;;;;;;4.32;2.25;;;;;;;20.01;67.60;100828.47;10414764;28;96721;-80
2023/09/18 21:52:23;;;;;;;3.58;1.83;;;;;;;20.38;66.72;100824.13;10413350;28;97186;-80
2023/09/18 21:57:27;;;;;;;6.38;2.08;;;;;;;20.49;66.10;100821.53;10413909;28;96696;-80
2023/09/18 22:02:32;;;;;;;5.25;1.63;;;;;;;20.61;65.71;100826.00;10425918;27;97544;-80
2023/09/18 22:07:35;;;;;;;8.10;1.85;;;;;;;20.24;66.75;100823.22;10413897;28;96737;-80
2023/09/18 22:12:39;;;;;;;4.97;1.88;;;;;;;20.17;67.04;100829.97;10414070;28;97047;-80
2023/09/18 22:17:43;;;;;;;3.13;1.83;;;;;;;20.08;67.19;100825.25;10413390;27;96620;-80
2023/09/18 22:22:48;;;;;;;6.13;2.38;;;;;;;19.68;68.59;100822.78;10413799;28;96675;-80
2023/09/18 22:27:53;;;;;;;4.18;2.40;;;;;;;19.58;68.81;100833.22;10419525;22;97758;-79
2023/09/18 22:32:58;;;;;;;5.85;2.00;;;;;;;19.99;67.75;100827.72;10413135;28;97264;-80
2023/09/18 22:38:09;;;;;;;4.85;1.92;;;;;;;19.96;67.67;100834.13;10454412;27;96783;-80
2023/09/18 22:43:49;;;;;;;3.47;1.70;;;;;;;20.21;67.25;100838.63;10453536;27;96880;-80
2023/09/18 22:49:30;;;;;;;4.07;1.70;;;;;;;19.90;67.84;100831.03;10441987;27;97171;-80
2023/09/18 22:54:48;;;;;;;3.53;1.48;;;;;;;19.71;68.63;100838.59;10450243;27;96632;-80
2023/09/18 22:59:53;;;;;;;2.85;1.58;;;;;;;19.92;68.11;100835.31;10454362;27;98272;-80
2023/09/18 23:04:58;;;;;;;3.25;1.63;;;;;;;19.52;68.97;100830.09;10454544;27;97215;-80
2023/09/18 23:10:04;;;;;;;6.10;1.90;;;;;;;19.59;68.97;100834.06;10454090;27;97323;-80
2023/09/18 23:15:11;;;;;;;6.03;2.00;;;;;;;19.17;70.52;100832.41;10454404;27;97003;-80
2023/09/18 23:20:16;;;;;;;4.13;1.85;;;;;;;19.51;69.62;100837.25;10454788;27;96588;-80
2023/09/18 23:25:21;;;;;;;5.72;2.22;;;;;;;19.66;68.45;100835.38;10453711;27;96756;-80
2023/09/18 23:30:27;;;;;;;3.97;2.35;;;;;;;19.48;69.63;100832.13;10458272;27;96823;-80